createdAt,value
2022-08-09T00:01:52.814Z,59.70
2022-08-09T00:04:34.189Z,59.59
2022-08-09T00:07:07.842Z,59.51
2022-08-09T00:09:40.684Z,59.64
2022-08-09T00:12:15.597Z,59.91
2022-08-09T00:14:55.972Z,60.09
2022-08-09T00:18:10.362Z,59.88
2022-08-09T00:20:15.385Z,60.30
2022-08-09T00:22:44.981Z,60.10
2022-08-09T00:25:23.099Z,60.21
2022-08-09T00:28:00.989Z,60.05
2022-08-09T00:30:35.921Z,59.97
2022-08-09T00:33:05.702Z,59.99
2022-08-09T00:35:43.506Z,60.00
2022-08-09T00:38:13.352Z,60.29
2022-08-09T00:40:53.257Z,60.07
2022-08-09T00:44:20.664Z,60.32
2022-08-09T00:46:14.562Z,59.88
2022-08-09T00:49:01.556Z,60.12
2022-08-09T00:51:33.811Z,60.49
2022-08-09T00:54:11.429Z,60.44
2022-08-09T00:56:40.208Z,60.61
2022-08-09T00:59:10.275Z,60.79
2022-08-09T01:01:45.093Z,60.83
2022-08-09T01:04:34.415Z,60.63
2022-08-09T01:07:37.670Z,60.99
2022-08-09T01:10:22.905Z,61.15
2022-08-09T01:13:07.435Z,61.00
2022-08-09T01:15:52.349Z,61.37
2022-08-09T01:18:30.504Z,61.47
2022-08-09T01:21:09.982Z,61.75
2022-08-09T01:24:05.006Z,61.87
2022-08-09T01:27:01.434Z,61.91
2022-08-09T01:29:55.095Z,62.36
2022-08-09T01:32:34.042Z,62.23
2022-08-09T01:35:39.235Z,62.24
2022-08-09T01:38:16.735Z,62.78
2022-08-09T01:41:04.836Z,62.41
2022-08-09T01:43:42.203Z,62.44
2022-08-09T01:46:26.979Z,62.67
2022-08-09T01:49:17.509Z,62.96
2022-08-09T01:51:53.192Z,62.94
2022-08-09T01:54:33.776Z,63.12
2022-08-09T01:57:10.353Z,63.53
2022-08-09T01:59:52.067Z,63.11
2022-08-09T02:02:34.041Z,63.63
2022-08-09T02:05:15.396Z,63.39
2022-08-09T02:08:38.438Z,63.49
2022-08-09T02:10:51.828Z,63.40
2022-08-09T02:13:26.209Z,63.47
2022-08-09T02:16:10.565Z,63.88
2022-08-09T02:18:43.049Z,63.85
2022-08-09T02:21:22.158Z,64.03
2022-08-09T02:23:56.436Z,64.07
2022-08-09T02:26:28.419Z,64.39
2022-08-09T02:29:02.098Z,64.25
2022-08-09T02:31:36.448Z,64.29
2022-08-09T02:34:40.961Z,64.14
2022-08-09T02:37:22.492Z,64.19
2022-08-09T02:40:03.028Z,64.24
2022-08-09T02:42:37.309Z,64.40
2022-08-09T02:45:12.240Z,64.97
2022-08-09T02:47:57.266Z,64.78
2022-08-09T02:50:32.757Z,65.22
2022-08-09T02:53:25.724Z,65.08
2022-08-09T02:55:58.999Z,65.04
2022-08-09T02:58:35.252Z,65.23
2022-08-09T03:01:10.838Z,65.49
2022-08-09T03:04:17.806Z,64.94
2022-08-09T03:06:31.647Z,65.30
2022-08-09T03:09:03.350Z,65.26
2022-08-09T03:12:05.283Z,65.17
2022-08-09T03:14:28.127Z,65.70
2022-08-09T03:16:59.753Z,66.04
2022-08-09T03:19:59.035Z,66.10
2022-08-09T03:22:25.768Z,66.00
2022-08-09T03:25:21.935Z,66.26
2022-08-09T03:27:55.269Z,66.22
2022-08-09T03:30:29.706Z,65.88
2022-08-09T03:33:12.864Z,65.99
2022-08-09T03:36:12.281Z,66.03
2022-08-09T03:38:43.617Z,66.13
2022-08-09T03:41:16.597Z,65.92
2022-08-09T03:44:03.285Z,65.85
2022-08-09T03:46:37.029Z,65.56
2022-08-09T03:49:07.991Z,65.59
2022-08-09T03:51:55.372Z,65.34
2022-08-09T03:54:38.575Z,65.45
2022-08-09T03:57:18.109Z,65.20
2022-08-09T03:59:54.360Z,65.27
2022-08-09T04:02:29.133Z,65.17
2022-08-09T04:05:01.329Z,65.08
2022-08-09T04:07:53.003Z,64.94
2022-08-09T04:10:29.314Z,64.74
2022-08-09T04:13:04.035Z,64.45
2022-08-09T04:15:52.460Z,64.30
2022-08-09T04:18:22.401Z,64.16
2022-08-09T04:20:54.209Z,63.90
2022-08-09T04:23:24.906Z,63.68
2022-08-09T04:25:56.299Z,63.39
2022-08-09T04:28:33.243Z,63.34
2022-08-09T04:31:09.235Z,63.11
2022-08-09T04:33:47.310Z,63.00
2022-08-09T04:36:25.742Z,62.65
2022-08-09T04:38:56.640Z,62.29
2022-08-09T04:41:32.115Z,61.93
2022-08-09T04:44:06.380Z,61.51
2022-08-09T04:46:58.519Z,61.06
2022-08-09T04:49:52.709Z,60.69
2022-08-09T04:52:28.302Z,60.20
2022-08-09T04:54:59.779Z,60.10
2022-08-09T04:57:54.176Z,59.75
2022-08-09T05:00:17.641Z,59.80
2022-08-09T05:02:48.641Z,59.78
2022-08-09T05:05:31.810Z,59.48
2022-08-09T05:08:14.043Z,59.69
2022-08-09T05:10:44.407Z,59.66
2022-08-09T05:13:14.220Z,59.15
2022-08-09T05:15:48.129Z,59.24
2022-08-09T05:18:50.419Z,58.96
2022-08-09T05:21:10.092Z,58.37
2022-08-09T05:23:53.989Z,57.99
2022-08-09T05:26:36.500Z,57.71
2022-08-09T05:29:17.655Z,57.11
2022-08-09T05:31:58.865Z,57.05
2022-08-09T05:34:31.456Z,55.90
2022-08-09T05:37:05.273Z,55.57
2022-08-09T05:39:43.268Z,55.04
2022-08-09T05:42:17.409Z,55.08
2022-08-09T05:44:54.730Z,54.42
2022-08-09T05:47:25.453Z,54.09
2022-08-09T05:50:24.258Z,54.00
2022-08-09T05:52:52.138Z,53.12
2022-08-09T05:55:24.286Z,52.90
2022-08-09T05:57:57.379Z,53.04
2022-08-09T06:00:29.017Z,52.63
2022-08-09T06:02:59.132Z,51.64
2022-08-09T06:05:49.924Z,51.22
2022-08-09T06:08:24.589Z,50.02
2022-08-09T06:10:56.093Z,49.29
2022-08-09T06:13:28.409Z,48.88
2022-08-09T06:16:04.712Z,47.96
2022-08-09T06:18:35.455Z,48.10
2022-08-09T06:21:07.193Z,48.16
2022-08-09T06:23:57.581Z,46.96
2022-08-09T06:26:28.507Z,47.02
2022-08-09T06:29:00.282Z,46.66
2022-08-09T06:31:39.937Z,45.75
2022-08-09T06:34:23.703Z,45.30
2022-08-09T06:36:57.265Z,44.61
2022-08-09T06:39:58.077Z,44.60
2022-08-09T06:42:24.848Z,44.23
2022-08-09T06:44:58.967Z,44.86
2022-08-09T06:47:29.974Z,44.08
2022-08-09T06:50:13.308Z,43.29
2022-08-09T06:52:48.821Z,43.39
2022-08-09T06:55:22.456Z,43.95
2022-08-09T06:58:03.583Z,43.91
2022-08-09T07:00:51.797Z,43.44
2022-08-09T07:03:28.357Z,42.70
2022-08-09T07:06:03.468Z,42.42
2022-08-09T07:08:37.374Z,42.29
2022-08-09T07:11:12.632Z,41.38
2022-08-09T07:14:05.617Z,41.11
2022-08-09T07:16:42.256Z,40.80
2022-08-09T07:19:18.694Z,39.65
2022-08-09T07:21:57.501Z,39.94
2022-08-09T07:24:39.901Z,39.80
2022-08-09T07:27:27.201Z,39.26
2022-08-09T07:30:04.026Z,39.06
2022-08-09T07:32:35.057Z,38.90
2022-08-09T07:35:10.685Z,38.06
2022-08-09T07:37:43.604Z,37.69
2022-08-09T07:40:20.347Z,38.04
2022-08-09T07:42:59.163Z,37.63
2022-08-09T07:45:39.983Z,37.65
2022-08-09T07:48:25.717Z,37.00
2022-08-09T07:51:09.015Z,36.84
2022-08-09T07:54:06.938Z,36.67
2022-08-09T07:56:38.836Z,36.53
2022-08-09T07:59:25.068Z,36.58
2022-08-09T08:02:03.695Z,36.98
2022-08-09T08:04:34.389Z,36.12
2022-08-09T08:07:15.347Z,35.71
2022-08-09T08:10:07.704Z,35.20
2022-08-09T08:12:42.568Z,34.56
2022-08-09T08:15:16.418Z,34.27
2022-08-09T08:17:53.674Z,34.38
2022-08-09T08:20:29.096Z,34.22
2022-08-09T08:23:03.630Z,34.21
2022-08-09T08:25:49.829Z,33.73
2022-08-09T08:28:25.675Z,34.10
2022-08-09T08:31:13.731Z,34.02
2022-08-09T08:33:52.710Z,33.50
2022-08-09T08:36:28.828Z,33.33
2022-08-09T08:39:01.661Z,32.14
2022-08-09T08:41:50.381Z,31.81
2022-08-09T08:44:27.421Z,31.55
2022-08-09T08:47:04.414Z,31.42
2022-08-09T08:49:47.720Z,31.35
2022-08-09T08:52:52.883Z,31.05
2022-08-09T08:55:10.295Z,30.84
2022-08-09T08:57:39.267Z,30.55
2022-08-09T09:00:16.939Z,31.03
2022-08-09T09:03:11.092Z,30.14
2022-08-09T09:06:00.948Z,29.73
2022-08-09T09:08:42.064Z,29.31
2022-08-09T09:11:13.866Z,28.83
2022-08-09T09:13:56.971Z,29.01
2022-08-09T09:16:34.416Z,28.41
2022-08-09T09:19:37.345Z,28.58
2022-08-09T09:22:04.168Z,28.01
2022-08-09T09:24:43.598Z,27.89
2022-08-09T09:28:04.228Z,27.60
2022-08-09T09:30:26.112Z,27.30
2022-08-09T09:33:19.372Z,26.93
2022-08-09T09:36:01.455Z,26.91
2022-08-09T09:38:57.104Z,25.69
2022-08-09T09:41:33.137Z,25.40
2022-08-09T09:44:13.444Z,25.79
2022-08-09T09:47:05.404Z,25.81
2022-08-09T09:50:07.409Z,25.46
2022-08-09T09:52:35.871Z,25.32
2022-08-09T09:55:24.286Z,25.35
2022-08-09T09:58:18.650Z,24.96
2022-08-09T10:00:58.922Z,25.41
2022-08-09T10:03:43.446Z,25.14
2022-08-09T10:06:13.801Z,23.85
2022-08-09T10:08:57.261Z,24.43
2022-08-09T10:12:07.713Z,24.09
2022-08-09T10:14:33.643Z,24.01
2022-08-09T10:17:40.203Z,24.42
2022-08-09T10:20:04.362Z,25.10
2022-08-09T10:22:40.926Z,25.37
2022-08-09T10:25:14.500Z,24.91
2022-08-09T10:27:56.569Z,24.64
2022-08-09T10:32:03.964Z,23.71
2022-08-09T10:33:29.654Z,22.93
2022-08-09T10:36:11.623Z,23.20
2022-08-09T10:38:57.308Z,22.55
2022-08-09T10:41:29.426Z,22.07
2022-08-09T10:44:01.835Z,21.59
2022-08-09T10:48:16.431Z,21.43
2022-08-09T10:50:27.029Z,20.14
2022-08-09T10:53:19.971Z,20.33
2022-08-09T10:56:27.774Z,20.83
2022-08-09T10:58:59.554Z,21.20
2022-08-09T11:03:11.890Z,20.58
2022-08-09T11:04:30.760Z,20.06
2022-08-09T11:07:01.139Z,19.51
2022-08-09T11:09:41.060Z,18.48
2022-08-09T11:12:29.892Z,18.67
2022-08-09T11:15:01.826Z,19.00
2022-08-09T11:17:31.218Z,17.94
2022-08-09T11:20:11.059Z,18.07
2022-08-09T11:22:56.525Z,18.56
2022-08-09T11:25:44.922Z,17.30
2022-08-09T11:28:38.629Z,17.08
2022-08-09T11:31:49.919Z,17.17
2022-08-09T11:34:51.560Z,15.83
2022-08-09T11:37:41.012Z,15.82
2022-08-09T11:40:13.770Z,16.06
2022-08-09T11:42:53.002Z,17.11
2022-08-09T11:45:42.304Z,17.34
2022-08-09T11:48:17.430Z,17.57
2022-08-09T11:52:49.538Z,17.34
2022-08-09T11:54:00.532Z,17.31
2022-08-09T11:56:41.554Z,17.13
2022-08-09T11:59:29.946Z,17.26
2022-08-09T12:02:37.276Z,16.27
2022-08-09T12:04:58.213Z,17.37
2022-08-09T12:07:41.666Z,17.33
2022-08-09T12:10:32.018Z,17.38
2022-08-09T12:13:03.866Z,17.37
2022-08-09T12:15:52.423Z,16.75
2022-08-09T12:18:30.366Z,16.76
2022-08-09T12:21:26.338Z,17.30
2022-08-09T12:24:08.666Z,17.19
2022-08-09T12:29:00.101Z,17.55
2022-08-09T12:30:01.702Z,17.02
2022-08-09T12:32:44.404Z,17.58
2022-08-09T12:35:19.241Z,18.27
2022-08-09T12:37:52.252Z,17.59
2022-08-09T12:40:27.492Z,16.88
2022-08-09T12:42:56.729Z,16.74
2022-08-09T12:45:32.586Z,17.00
2022-08-09T12:48:19.850Z,16.33
2022-08-09T12:50:54.023Z,16.54
2022-08-09T12:53:33.434Z,16.89
2022-08-09T12:56:29.793Z,16.10
2022-08-09T12:59:20.851Z,15.79
2022-08-09T13:02:10.051Z,15.96
2022-08-09T13:04:40.101Z,14.90
2022-08-09T13:07:19.802Z,15.30
2022-08-09T13:10:04.932Z,14.89
2022-08-09T13:12:39.825Z,14.86
2022-08-09T13:15:23.156Z,15.20
2022-08-09T13:18:04.728Z,15.42
2022-08-09T13:20:50.320Z,14.91
2022-08-09T13:24:17.265Z,14.67
2022-08-09T13:26:39.151Z,14.64
2022-08-09T13:29:10.632Z,14.58
2022-08-09T13:32:20.059Z,14.75
2022-08-09T13:34:55.175Z,14.75
2022-08-09T13:37:51.106Z,14.65
2022-08-09T13:41:50.970Z,14.39
2022-08-09T13:43:05.251Z,14.49
2022-08-09T13:46:43.015Z,14.50
2022-08-09T13:48:27.209Z,13.53
2022-08-09T13:50:58.881Z,13.56
2022-08-09T13:53:41.410Z,13.88
2022-08-09T13:56:12.364Z,13.53
2022-08-09T13:58:41.529Z,13.89
2022-08-09T14:01:13.575Z,14.24
2022-08-09T14:04:03.250Z,14.16
2022-08-09T14:06:36.937Z,14.19
2022-08-09T14:09:09.530Z,13.97
2022-08-09T14:11:41.313Z,13.91
2022-08-09T14:14:26.804Z,14.09
2022-08-09T14:16:58.633Z,13.81
2022-08-09T14:19:33.100Z,14.31
2022-08-09T14:22:02.036Z,14.43
2022-08-09T14:24:32.130Z,14.87
2022-08-09T14:27:01.603Z,15.00
2022-08-09T14:30:34.725Z,14.76
2022-08-09T14:32:20.090Z,15.12
2022-08-09T14:34:59.717Z,15.29
2022-08-09T14:37:40.882Z,15.34
2022-08-09T14:40:17.803Z,15.07
2022-08-09T14:42:49.027Z,15.74
2022-08-09T14:46:58.876Z,15.56
2022-08-09T14:48:06.538Z,15.64
2022-08-09T14:50:37.235Z,15.32
2022-08-09T14:53:12.997Z,14.62
2022-08-09T14:55:49.970Z,14.93
2022-08-09T14:58:20.085Z,15.59
2022-08-09T15:00:51.165Z,15.69
2022-08-09T15:03:21.269Z,15.95
2022-08-09T15:05:54.707Z,16.11
2022-08-09T15:08:30.201Z,16.56
2022-08-09T15:11:00.542Z,15.92
2022-08-09T15:13:48.133Z,16.36
2022-08-09T15:16:22.450Z,16.12
2022-08-09T15:18:52.348Z,16.12
2022-08-09T15:21:55.920Z,16.28
2022-08-09T15:24:13.915Z,15.91
2022-08-09T15:26:47.924Z,15.97
2022-08-09T15:30:57.173Z,16.07
2022-08-09T15:32:29.793Z,15.86
2022-08-09T15:35:00.656Z,15.18
2022-08-09T15:37:37.032Z,15.00
2022-08-09T15:40:11.653Z,15.38
2022-08-09T15:42:42.477Z,15.78
2022-08-09T15:45:13.942Z,15.85
2022-08-09T15:48:01.694Z,16.30
2022-08-09T15:50:39.082Z,16.58
2022-08-09T15:54:02.037Z,16.62
2022-08-09T15:56:21.052Z,16.25
2022-08-09T15:58:46.348Z,16.49
2022-08-09T16:01:15.438Z,16.63
2022-08-09T16:03:44.059Z,17.13
2022-08-09T16:06:27.279Z,17.24
2022-08-09T16:09:04.946Z,17.60
2022-08-09T16:11:34.169Z,17.67
2022-08-09T16:14:07.920Z,17.55
2022-08-09T16:16:37.868Z,17.65
2022-08-09T16:19:08.765Z,17.66
2022-08-09T16:21:39.179Z,17.55
2022-08-09T16:24:20.107Z,17.74
2022-08-09T16:26:58.818Z,17.99
2022-08-09T16:29:37.830Z,18.32
2022-08-09T16:32:33.489Z,19.73
2022-08-09T16:35:06.310Z,20.86
2022-08-09T16:37:55.627Z,20.86
2022-08-09T16:40:34.023Z,20.87
2022-08-09T16:43:09.894Z,21.61
2022-08-09T16:45:44.310Z,22.36
2022-08-09T16:48:43.401Z,22.79
2022-08-09T16:52:02.653Z,23.39
2022-08-09T16:54:34.901Z,24.25
2022-08-09T16:57:03.957Z,25.03
2022-08-09T16:59:34.629Z,25.73
2022-08-09T17:02:04.205Z,26.14
2022-08-09T17:04:34.834Z,26.62
2022-08-09T17:08:46.217Z,26.92
2022-08-09T17:10:01.715Z,27.78
2022-08-09T17:12:38.251Z,28.13
2022-08-09T17:15:31.359Z,28.20
2022-08-09T17:18:00.859Z,28.43
2022-08-09T17:20:36.960Z,28.71
2022-08-09T17:23:14.739Z,29.17
2022-08-09T17:25:45.446Z,29.61
2022-08-09T17:28:22.172Z,30.00
2022-08-09T17:30:52.035Z,30.03
2022-08-09T17:33:22.376Z,30.17
2022-08-09T17:35:52.327Z,30.44
2022-08-09T17:38:30.519Z,30.47
2022-08-09T17:41:03.311Z,30.70
2022-08-09T17:43:37.009Z,30.96
2022-08-09T17:46:09.155Z,30.94
2022-08-09T17:48:52.001Z,31.49
2022-08-09T17:51:22.281Z,31.38
2022-08-09T17:53:55.475Z,31.97
2022-08-09T17:56:35.540Z,32.25
2022-08-09T17:59:11.880Z,32.26
2022-08-09T18:02:07.704Z,32.58
2022-08-09T18:04:33.644Z,33.06
2022-08-09T18:07:04.681Z,33.19
2022-08-09T18:09:35.698Z,33.48
2022-08-09T18:12:20.204Z,33.93
2022-08-09T18:14:54.398Z,34.42
2022-08-09T18:17:27.104Z,35.02
2022-08-09T18:20:56.592Z,34.84
2022-08-09T18:23:07.113Z,34.76
2022-08-09T18:25:53.292Z,34.50
2022-08-09T18:30:37.646Z,34.34
2022-08-09T18:31:24.679Z,34.06
2022-08-09T18:34:01.789Z,33.63
2022-08-09T18:37:48.173Z,33.55
2022-08-09T18:40:19.373Z,33.45
2022-08-09T18:42:55.740Z,33.86
2022-08-09T18:46:50.679Z,33.51
2022-08-09T18:48:13.197Z,34.04
2022-08-09T18:50:46.541Z,34.54
2022-08-09T18:53:16.579Z,34.81
2022-08-09T18:55:56.855Z,35.36
2022-08-09T18:58:33.945Z,35.82
2022-08-09T19:01:03.763Z,36.40
2022-08-09T19:03:38.481Z,36.62
2022-08-09T19:06:21.882Z,37.19
2022-08-09T19:09:02.124Z,37.61
2022-08-09T19:11:37.739Z,38.16
2022-08-09T19:14:08.035Z,37.91
2022-08-09T19:16:38.152Z,38.22
2022-08-09T19:19:26.140Z,38.74
2022-08-09T19:22:06.912Z,38.78
2022-08-09T19:25:11.386Z,39.14
2022-08-09T19:27:28.773Z,39.95
2022-08-09T19:30:24.620Z,40.05
2022-08-09T19:32:46.709Z,40.60
2022-08-09T19:35:26.249Z,40.77
2022-08-09T19:37:57.425Z,41.40
2022-08-09T19:40:34.170Z,42.68
2022-08-09T19:43:10.273Z,43.71
2022-08-09T19:46:50.564Z,45.82
2022-08-09T19:50:06.876Z,47.73
2022-08-09T19:52:21.216Z,48.58
2022-08-09T19:54:50.029Z,48.90
2022-08-09T19:57:18.822Z,50.45
2022-08-09T19:59:59.139Z,50.11
2022-08-09T20:04:11.124Z,50.95
2022-08-09T20:05:27.945Z,52.25
2022-08-09T20:08:00.409Z,52.31
2022-08-09T20:10:36.720Z,52.07
2022-08-09T20:13:08.462Z,52.52
2022-08-09T20:16:32.858Z,52.26
2022-08-09T20:19:47.880Z,53.54
2022-08-09T20:22:32.437Z,54.18
2022-08-09T20:25:07.185Z,54.59
2022-08-09T20:27:36.962Z,54.89
2022-08-09T20:30:07.396Z,54.22
2022-08-09T20:32:39.059Z,53.86
2022-08-09T20:35:08.787Z,54.60
2022-08-09T20:38:20.645Z,54.51
2022-08-09T20:40:30.340Z,54.95
2022-08-09T20:43:18.576Z,55.30
2022-08-09T20:46:00.076Z,55.22
2022-08-09T20:48:39.166Z,55.17
2022-08-09T20:51:08.058Z,55.64
2022-08-09T20:53:49.112Z,55.85
2022-08-09T20:56:26.125Z,56.62
2022-08-09T20:58:58.831Z,56.41
2022-08-09T21:01:34.767Z,57.43
2022-08-09T21:05:53.363Z,57.18
2022-08-09T21:07:12.060Z,58.13
2022-08-09T21:09:45.876Z,58.30
2022-08-09T21:15:23.463Z,58.14
2022-08-09T21:18:22.980Z,58.24
2022-08-09T21:20:45.139Z,58.42
2022-08-09T21:23:29.221Z,60.01
2022-08-09T21:26:15.679Z,60.13
2022-08-09T21:28:55.576Z,59.86
2022-08-09T21:31:48.149Z,60.47
2022-08-09T21:34:21.061Z,59.53
2022-08-09T21:36:58.062Z,60.04
2022-08-09T21:39:28.055Z,59.56
2022-08-09T21:42:11.718Z,59.98
2022-08-09T21:44:42.868Z,59.73
2022-08-09T21:47:18.121Z,59.63
2022-08-09T21:49:48.394Z,60.36
2022-08-09T21:52:20.509Z,59.72
2022-08-09T21:55:03.046Z,59.83
2022-08-09T21:57:39.512Z,59.51
2022-08-09T22:00:32.633Z,59.32
2022-08-09T22:03:07.071Z,58.86
2022-08-09T22:05:42.153Z,58.54
2022-08-09T22:08:17.026Z,58.32
2022-08-09T22:11:00.540Z,58.41
2022-08-09T22:13:36.699Z,57.93
2022-08-09T22:16:09.337Z,57.85
2022-08-09T22:18:53.198Z,57.52
2022-08-09T22:21:27.656Z,57.65
2022-08-09T22:24:16.865Z,57.59
2022-08-09T22:26:47.879Z,57.37
2022-08-09T22:29:28.466Z,57.47
2022-08-09T22:32:01.434Z,57.37
2022-08-09T22:34:30.121Z,57.25
2022-08-09T22:37:00.152Z,57.12
2022-08-09T22:39:56.413Z,57.11
2022-08-09T22:42:22.382Z,57.03
2022-08-09T22:48:05.934Z,56.90
2022-08-09T22:48:33.859Z,56.90
2022-08-09T22:50:33.714Z,57.07
2022-08-09T22:53:03.941Z,56.97
2022-08-09T22:56:06.030Z,57.01
2022-08-09T22:58:32.571Z,56.93
2022-08-09T23:01:03.631Z,56.82
2022-08-09T23:04:05.590Z,56.71
2022-08-09T23:06:35.024Z,56.82
2022-08-09T23:09:07.132Z,56.81
2022-08-09T23:11:35.923Z,56.58
2022-08-09T23:14:10.194Z,56.45
2022-08-09T23:16:46.324Z,56.58
2022-08-09T23:19:15.094Z,56.90
2022-08-09T23:21:43.676Z,56.72
2022-08-09T23:24:12.568Z,56.67
2022-08-09T23:26:41.194Z,57.24
2022-08-09T23:29:14.009Z,57.13
2022-08-09T23:31:43.261Z,56.96
2022-08-09T23:34:11.823Z,57.75
2022-08-09T23:36:40.722Z,57.85
2022-08-09T23:39:09.578Z,57.71
2022-08-09T23:41:38.196Z,58.06
2022-08-09T23:44:07.003Z,58.01
2022-08-09T23:46:35.772Z,58.43
2022-08-09T23:49:04.528Z,58.23
2022-08-09T23:51:33.248Z,58.61
2022-08-09T23:54:03.430Z,58.37
2022-08-09T23:56:52.371Z,58.44
2022-08-09T23:59:23.990Z,58.89
